Time;durP1;ratioP1;P1;durP2;ratioP2;P2;SDS_P1;SDS_P2;PMS_P1;PMS_P2;Temp;Humidity;BMP_temperature;BMP_pressure;BME280_temperature;BME280_humidity;BME280_pressure;Samples;Min_cycle;Max_cycle;Signal;HPM_P1;HPM_P2
2022/07/22 00:00:55;;;;;;;6.13;5.53;;;;;;;21.06;66.07;101139.50;7397146;19;20468;-69
2022/07/22 00:03:24;;;;;;;6.45;5.45;;;;;;;21.05;65.70;101135.09;7399663;19;20006;-69
2022/07/22 00:05:52;;;;;;;6.05;5.45;;;;;;;21.04;65.83;101140.53;7397522;19;20073;-69
2022/07/22 00:08:21;;;;;;;6.32;5.72;;;;;;;21.04;65.96;101137.88;7398025;19;20026;-69
2022/07/22 00:10:49;;;;;;;8.90;5.65;;;;;;;21.04;65.67;101135.19;7399426;19;20031;-69
2022/07/22 00:13:18;;;;;;;6.88;5.80;;;;;;;21.02;65.80;101129.13;7396882;19;20505;-69
2022/07/22 00:15:46;;;;;;;5.70;5.20;;;;;;;21.01;65.68;101132.72;7397866;19;20023;-69
2022/07/22 00:18:18;;;;;;;6.55;6.03;;;;;;;21.01;65.59;101146.06;7397783;19;20023;-69
2022/07/22 00:20:46;;;;;;;7.55;5.75;;;;;;;21.01;65.52;101135.41;7396817;19;20011;-69
2022/07/22 00:23:15;;;;;;;6.90;6.32;;;;;;;21.01;65.86;101140.72;7399286;19;20021;-69
2022/07/22 00:25:44;;;;;;;5.88;5.32;;;;;;;20.98;66.07;101139.94;7398782;19;20010;-69
2022/07/22 00:28:12;;;;;;;7.13;5.32;;;;;;;20.96;66.22;101141.00;7396081;19;20427;-68
2022/07/22 00:30:40;;;;;;;6.15;5.15;;;;;;;20.94;65.89;101141.09;7398636;19;20392;-68
2022/07/22 00:33:09;;;;;;;5.70;5.20;;;;;;;20.93;66.06;101144.69;7397103;19;20386;-67
2022/07/22 00:35:40;;;;;;;5.05;4.65;;;;;;;20.92;66.24;101145.66;7398388;19;20375;-68
2022/07/22 00:38:09;;;;;;;5.32;4.82;;;;;;;20.88;65.82;101141.44;7397567;19;20018;-67
2022/07/22 00:40:37;;;;;;;5.47;4.95;;;;;;;20.88;66.01;101141.44;7398751;19;20018;-68
2022/07/22 00:43:06;;;;;;;5.28;4.78;;;;;;;20.86;65.63;101143.34;7398145;19;20077;-68
2022/07/22 00:45:34;;;;;;;4.93;4.53;;;;;;;20.84;66.03;101139.91;7397179;19;20364;-68
2022/07/22 00:48:03;;;;;;;5.07;4.57;;;;;;;20.83;65.93;101143.53;7396341;19;20022;-68
2022/07/22 00:50:32;;;;;;;6.90;5.13;;;;;;;20.81;66.30;101140.09;7397479;19;20015;-66
2022/07/22 00:53:03;;;;;;;5.63;5.13;;;;;;;20.79;66.30;101147.34;7396149;19;20026;-68
2022/07/22 00:55:32;;;;;;;6.22;5.20;;;;;;;20.76;65.96;101143.03;7398215;19;20104;-68
2022/07/22 00:58:00;;;;;;;5.22;4.72;;;;;;;20.76;66.05;101148.38;7396443;19;20018;-68
2022/07/22 01:00:29;;;;;;;5.47;4.97;;;;;;;20.74;66.15;101141.38;7397963;19;20077;-68
2022/07/22 01:02:58;;;;;;;5.20;4.55;;;;;;;20.72;66.22;101146.81;7395568;19;20427;-67
2022/07/22 01:05:26;;;;;;;9.25;5.10;;;;;;;20.71;66.45;101150.41;7397421;19;20491;-66
2022/07/22 01:07:55;;;;;;;6.13;5.20;;;;;;;20.71;66.42;101138.91;7396197;19;20022;-67
2022/07/22 01:10:27;;;;;;;5.72;5.22;;;;;;;20.71;66.39;101145.09;7397271;19;20497;-66
2022/07/22 01:12:55;;;;;;;5.45;4.95;;;;;;;20.70;66.42;101151.38;7397520;19;20542;-68
2022/07/22 01:15:24;;;;;;;5.45;4.95;;;;;;;20.68;66.26;101148.75;7397422;19;20035;-67
2022/07/22 01:17:52;;;;;;;6.45;5.20;;;;;;;20.66;65.95;101148.00;7395617;19;20014;-67
2022/07/22 01:20:25;;;;;;;4.88;4.47;;;;;;;20.64;66.49;101147.22;7397004;19;20018;-67
2022/07/22 01:22:54;;;;;;;5.07;4.67;;;;;;;20.63;66.19;101147.31;7397124;19;20458;-67
2022/07/22 01:25:22;;;;;;;4.63;3.90;;;;;;;20.59;66.16;101143.13;7396745;19;20381;-67
2022/07/22 01:27:51;;;;;;;5.22;4.40;;;;;;;20.58;66.27;101147.56;7396124;19;20073;-67
2022/07/22 01:30:20;;;;;;;5.53;4.15;;;;;;;20.56;66.43;101138.84;7396898;19;20014;-67
2022/07/22 01:32:48;;;;;;;5.07;4.10;;;;;;;20.54;66.50;101138.06;7395271;19;20077;-67
2022/07/22 01:35:17;;;;;;;5.28;4.22;;;;;;;20.52;66.41;101139.94;7396542;19;20018;-67
2022/07/22 01:37:48;;;;;;;4.63;3.95;;;;;;;20.50;66.30;101147.19;7395595;19;20035;-66
2022/07/22 01:40:16;;;;;;;3.60;3.30;;;;;;;20.46;66.45;101146.50;7393987;19;20015;-67
2022/07/22 01:42:45;;;;;;;4.32;3.92;;;;;;;20.43;66.55;101145.78;7396309;19;20473;-67
2022/07/22 01:45:13;;;;;;;4.30;3.90;;;;;;;20.39;66.77;101149.59;7396513;19;20090;-67
2022/07/22 01:47:42;;;;;;;4.00;3.70;;;;;;;20.34;66.33;101142.69;7395604;19;20028;-67
2022/07/22 01:50:12;;;;;;;5.65;3.40;;;;;;;20.32;67.00;101144.59;7394350;19;20482;-66
2022/07/22 01:52:41;;;;;;;4.47;4.07;;;;;;;20.29;66.98;101144.75;7394132;19;20419;-67
2022/07/22 01:55:13;;;;;;;4.32;3.88;;;;;;;20.27;66.84;101145.78;7396189;19;20022;-66
2022/07/22 01:57:42;;;;;;;3.80;3.22;;;;;;;20.23;66.98;101146.91;7394085;19;20491;-67
2022/07/22 02:00:13;;;;;;;3.67;3.30;;;;;;;20.21;66.99;101141.69;7395968;19;20022;-67
2022/07/22 02:02:41;;;;;;;4.00;3.63;;;;;;;20.17;67.38;101148.13;7396343;19;20087;-66
2022/07/22 02:05:11;;;;;;;4.18;3.65;;;;;;;20.11;67.32;101135.16;7395397;19;20031;-66
2022/07/22 02:07:39;;;;;;;4.47;4.07;;;;;;;20.10;67.50;101146.75;7394224;19;20022;-67
2022/07/22 02:10:09;;;;;;;4.50;4.10;;;;;;;20.04;68.07;101139.09;7395428;19;20010;-67
2022/07/22 02:12:40;;;;;;;4.68;4.22;;;;;;;19.98;67.77;101138.50;7394304;19;20509;-68
2022/07/22 02:15:10;;;;;;;4.70;4.03;;;;;;;19.94;68.02;101138.75;7396002;19;20019;-67
2022/07/22 02:17:39;;;;;;;4.28;3.88;;;;;;;19.90;68.42;101135.38;7393848;19;20019;-67
2022/07/22 02:20:09;;;;;;;4.68;3.80;;;;;;;19.85;68.63;101138.31;7396647;19;20039;-68
2022/07/22 02:22:37;;;;;;;5.00;3.97;;;;;;;19.84;68.80;101131.28;7395540;19;20015;-67
2022/07/22 02:25:07;;;;;;;4.90;3.60;;;;;;;19.81;68.38;101143.84;7394034;19;20015;-66
2022/07/22 02:27:35;;;;;;;4.97;4.22;;;;;;;19.78;68.54;101142.22;7394450;19;20022;-67
2022/07/22 02:30:07;;;;;;;5.82;4.18;;;;;;;19.72;68.81;101137.22;7395012;19;20040;-69
2022/07/22 02:32:36;;;;;;;4.53;4.13;;;;;;;19.67;69.23;101142.78;7393103;19;20014;-69
2022/07/22 02:35:06;;;;;;;5.15;4.65;;;;;;;19.62;69.19;101138.66;7394584;19;20031;-70
2022/07/22 02:37:34;;;;;;;5.43;4.93;;;;;;;19.57;69.70;101154.88;7393748;19;20022;-70
2022/07/22 02:40:03;;;;;;;5.20;4.70;;;;;;;19.51;70.10;101163.16;7392889;19;20038;-69
2022/07/22 02:42:32;;;;;;;5.05;4.65;;;;;;;19.45;70.12;101153.72;7393947;19;20018;-70
2022/07/22 02:45:00;;;;;;;6.03;5.28;;;;;;;19.41;70.51;101154.84;7394823;19;20022;-70
2022/07/22 02:47:31;;;;;;;8.57;5.22;;;;;;;19.37;70.81;101161.22;7393588;19;20520;-70
2022/07/22 02:50:00;;;;;;;5.68;5.18;;;;;;;19.31;70.96;101166.88;7395682;19;20011;-69
2022/07/22 02:52:28;;;;;;;5.30;4.80;;;;;;;19.26;71.10;101169.78;7399277;19;20099;-69
2022/07/22 02:54:57;;;;;;;5.45;4.95;;;;;;;19.23;71.08;101169.09;7401901;19;20073;-69
2022/07/22 02:57:25;;;;;;;5.38;4.88;;;;;;;19.19;71.37;101177.19;7398802;19;20018;-69
2022/07/22 02:59:54;;;;;;;7.05;5.97;;;;;;;19.18;71.19;101175.50;7401907;19;20018;-69
2022/07/22 03:02:22;;;;;;;6.32;5.75;;;;;;;19.17;71.51;101172.91;7401530;19;20019;-69
2022/07/22 03:04:53;;;;;;;5.88;5.32;;;;;;;19.16;71.78;101168.53;7401580;19;20026;-70
2022/07/22 03:07:22;;;;;;;5.82;5.32;;;;;;;19.15;71.70;101170.31;7398574;19;20077;-69
2022/07/22 03:09:50;;;;;;;6.55;5.60;;;;;;;19.13;71.63;101168.69;7401259;19;20018;-69
2022/07/22 03:12:19;;;;;;;6.35;5.75;;;;;;;19.14;71.63;101167.75;7400304;19;20031;-70
2022/07/22 03:14:47;;;;;;;6.57;5.97;;;;;;;19.12;71.73;101162.53;7398716;19;20469;-70
2022/07/22 03:17:16;;;;;;;6.70;5.72;;;;;;;19.10;72.03;101164.38;7400129;19;20431;-69
2022/07/22 03:19:44;;;;;;;6.47;5.78;;;;;;;19.07;71.87;101159.22;7400674;19;20015;-71
2022/07/22 03:22:16;;;;;;;6.50;5.90;;;;;;;19.09;72.11;101167.13;7401328;19;20031;-71
2022/07/22 03:24:44;;;;;;;6.57;5.60;;;;;;;19.03;72.16;101163.84;7401692;19;20026;-70
2022/07/22 03:27:13;;;;;;;6.47;5.88;;;;;;;19.08;72.20;101165.41;7400246;19;20031;-70
2022/07/22 03:29:41;;;;;;;5.70;5.20;;;;;;;19.08;72.16;101176.03;7400250;19;20021;-68
2022/07/22 03:32:10;;;;;;;6.53;5.00;;;;;;;19.08;72.48;101170.72;7399689;19;20014;-71
2022/07/22 03:34:38;;;;;;;5.82;5.20;;;;;;;19.07;72.15;101179.63;7400393;19;20359;-70
2022/07/22 03:37:07;;;;;;;5.80;5.30;;;;;;;19.04;72.27;101183.31;7397441;19;20505;-70
2022/07/22 03:39:38;;;;;;;5.80;5.30;;;;;;;19.02;72.55;101177.22;7400202;19;20027;-71
2022/07/22 03:42:07;;;;;;;6.43;5.85;;;;;;;18.98;72.55;101184.50;7399946;19;20010;-70
2022/07/22 03:44:35;;;;;;;6.30;5.70;;;;;;;18.97;72.78;101176.56;7400235;19;20031;-70
2022/07/22 03:47:04;;;;;;;7.13;6.40;;;;;;;18.93;73.08;101181.19;7399562;19;20022;-70
2022/07/22 03:49:33;;;;;;;13.93;6.10;;;;;;;18.90;72.92;101178.69;7400265;19;20368;-70
2022/07/22 03:52:01;;;;;;;7.03;6.13;;;;;;;18.86;73.00;101183.25;7399401;19;20501;-71
2022/07/22 03:54:30;;;;;;;7.40;6.30;;;;;;;18.84;73.41;101184.25;7400371;19;20391;-69
2022/07/22 03:57:01;;;;;;;5.85;5.25;;;;;;;18.82;73.50;101186.16;7399320;19;20031;-69
2022/07/22 03:59:30;;;;;;;6.95;6.30;;;;;;;18.80;73.69;101188.88;7397676;19;20026;-70
2022/07/22 04:01:58;;;;;;;7.97;6.18;;;;;;;18.79;73.62;101183.63;7397339;19;20032;-69
2022/07/22 04:04:27;;;;;;;6.85;6.25;;;;;;;18.79;73.46;101188.94;7399207;19;20423;-69
2022/07/22 04:06:55;;;;;;;7.10;6.50;;;;;;;18.78;73.79;101190.75;7396896;19;20027;-68
2022/07/22 04:09:24;;;;;;;7.30;6.50;;;;;;;18.74;73.70;101178.56;7399389;19;20015;-69
2022/07/22 04:11:53;;;;;;;7.20;6.50;;;;;;;18.78;74.21;101184.56;7399503;19;20089;-70
2022/07/22 04:14:24;;;;;;;8.32;6.43;;;;;;;18.77;74.03;101182.88;7396893;19;20085;-68
2022/07/22 04:16:53;;;;;;;7.32;6.57;;;;;;;18.78;74.30;101184.56;7397532;19;20027;-68
2022/07/22 04:19:21;;;;;;;7.57;6.88;;;;;;;18.79;74.39;101180.97;7398588;19;20038;-69
2022/07/22 04:21:50;;;;;;;8.18;7.35;;;;;;;18.78;74.21;101179.25;7396514;19;20026;-70
2022/07/22 04:24:18;;;;;;;7.80;7.10;;;;;;;18.80;74.54;101188.88;7398724;19;20375;-69
2022/07/22 04:26:47;;;;;;;10.50;7.97;;;;;;;18.80;74.66;101182.72;7398300;19;20415;-69
2022/07/22 04:29:22;;;;;;;9.15;7.63;;;;;;;18.80;74.38;101177.38;7398644;19;20014;-71
2022/07/22 04:32:00;;;;;;;7.45;6.80;;;;;;;18.85;74.47;101175.34;7395839;19;20011;-70
2022/07/22 04:34:29;;;;;;;8.63;7.75;;;;;;;18.89;74.36;101187.56;7398574;19;20019;-70
2022/07/22 04:36:57;;;;;;;8.80;8.00;;;;;;;18.92;74.20;101182.13;7397930;19;20363;-69
2022/07/22 04:39:26;;;;;;;7.53;6.68;;;;;;;18.96;74.17;101182.84;7398611;19;20018;-70
2022/07/22 04:41:54;;;;;;;8.30;7.50;;;;;;;18.99;74.36;101180.91;7398233;19;20010;-70
2022/07/22 04:44:23;;;;;;;9.15;8.25;;;;;;;19.00;73.99;101174.63;7396182;19;20022;-70
2022/07/22 04:46:52;;;;;;;9.30;8.40;;;;;;;19.07;73.75;101185.81;7398099;19;20007;-70
2022/07/22 04:49:23;;;;;;;7.90;7.03;;;;;;;19.11;73.77;101186.50;7398149;19;20022;-70
2022/07/22 04:51:51;;;;;;;8.48;7.72;;;;;;;19.13;73.39;101189.97;7397626;19;20489;-69
2022/07/22 04:54:20;;;;;;;8.98;8.18;;;;;;;19.14;73.87;101191.69;7395380;19;20015;-70
2022/07/22 04:56:48;;;;;;;9.00;8.10;;;;;;;19.15;73.60;101188.09;7395915;19;20014;-70
2022/07/22 04:59:17;;;;;;;11.40;8.88;;;;;;;19.16;73.42;101193.31;7397243;19;20022;-70
2022/07/22 05:01:45;;;;;;;8.70;7.80;;;;;;;19.17;73.21;101191.50;7397666;19;20031;-70
2022/07/22 05:04:14;;;;;;;9.85;8.57;;;;;;;19.17;73.24;101187.06;7397664;19;20032;-70
2022/07/22 05:06:45;;;;;;;10.68;9.57;;;;;;;19.19;73.62;101194.97;7395112;19;20023;-70
2022/07/22 05:09:14;;;;;;;10.10;9.10;;;;;;;19.19;73.46;101190.50;7397176;19;20019;-70
2022/07/22 05:11:42;;;;;;;9.23;8.20;;;;;;;19.20;73.50;101197.53;7395080;19;20147;-70
2022/07/22 05:14:11;;;;;;;9.18;8.20;;;;;;;19.21;73.48;101193.94;7395592;19;20010;-70
2022/07/22 05:16:39;;;;;;;9.50;8.63;;;;;;;19.20;73.35;101192.22;7396428;19;20488;-70
2022/07/22 05:19:08;;;;;;;9.00;8.10;;;;;;;19.27;73.40;101199.91;7396291;19;20010;-70
2022/07/22 05:22:01;;;;;;;7.90;7.20;;;;;;;19.28;73.41;101194.50;7397132;19;20010;-70
2022/07/22 05:24:29;;;;;;;8.63;7.72;;;;;;;19.30;73.54;101189.97;7398835;19;20031;-69
2022/07/22 05:26:58;;;;;;;8.00;7.28;;;;;;;19.30;73.03;101187.31;7396346;19;20501;-70
2022/07/22 05:29:26;;;;;;;8.00;7.22;;;;;;;19.37;73.07;101191.38;7395377;19;20022;-69
2022/07/22 05:31:55;;;;;;;8.10;6.88;;;;;;;19.41;73.24;101192.09;7398577;19;20011;-69
2022/07/22 05:34:30;;;;;;;7.93;7.22;;;;;;;19.45;72.93;101200.75;7394187;19;20070;-69
2022/07/22 05:37:07;;;;;;;7.65;7.00;;;;;;;19.48;72.93;101193.47;7396183;19;20103;-69
2022/07/22 05:39:36;;;;;;;8.15;7.25;;;;;;;19.50;72.50;101198.72;7396616;19;20022;-69
2022/07/22 05:42:05;;;;;;;8.73;7.50;;;;;;;19.53;72.20;101196.75;7396090;19;20027;-69
2022/07/22 05:44:33;;;;;;;8.60;7.38;;;;;;;19.55;72.21;101196.69;7395836;19;20014;-70
2022/07/22 05:47:02;;;;;;;7.70;6.72;;;;;;;19.58;72.17;101191.19;7395258;19;20481;-69
2022/07/22 05:49:30;;;;;;;8.13;6.93;;;;;;;19.62;71.91;101194.56;7395928;19;20095;-70
2022/07/22 05:52:00;;;;;;;8.57;7.22;;;;;;;19.65;72.13;101199.69;7395844;19;20019;-70
2022/07/22 05:54:32;;;;;;;7.60;6.40;;;;;;;19.67;71.99;101201.34;7394836;19;20073;-70
2022/07/22 05:57:00;;;;;;;7.47;6.57;;;;;;;19.70;71.67;101198.53;7395438;19;20363;-70
2022/07/22 05:59:29;;;;;;;6.32;5.72;;;;;;;19.73;71.42;101200.16;7395961;19;20035;-70
2022/07/22 06:01:57;;;;;;;6.57;5.97;;;;;;;19.79;71.41;101204.28;7395409;19;20035;-70
2022/07/22 06:04:26;;;;;;;7.97;6.53;;;;;;;19.83;71.59;101205.91;7394916;19;20510;-70
2022/07/22 06:06:55;;;;;;;6.25;5.65;;;;;;;19.88;71.05;101208.28;7394298;19;20010;-70
2022/07/22 06:09:23;;;;;;;9.85;8.82;;;;;;;19.92;70.92;101205.41;7395059;19;20015;-71
2022/07/22 06:11:54;;;;;;;6.82;6.22;;;;;;;19.98;70.93;101198.88;7395306;19;20367;-71
2022/07/22 06:14:23;;;;;;;6.35;5.78;;;;;;;20.02;70.58;101201.28;7393779;19;20384;-71
2022/07/22 06:16:52;;;;;;;6.45;5.88;;;;;;;20.07;70.63;101200.16;7394836;19;20372;-70
2022/07/22 06:19:20;;;;;;;5.80;5.30;;;;;;;20.11;70.15;101209.75;7395137;19;20380;-71
2022/07/22 06:21:49;;;;;;;7.80;6.05;;;;;;;20.13;70.17;101205.16;7395959;19;20014;-71
2022/07/22 06:24:17;;;;;;;6.18;5.65;;;;;;;20.14;70.06;101209.56;7392755;19;20042;-70
2022/07/22 06:26:46;;;;;;;5.47;4.75;;;;;;;20.17;69.81;101209.41;7393280;19;20014;-70
2022/07/22 06:29:17;;;;;;;5.65;5.15;;;;;;;20.20;69.66;101214.56;7392678;19;20018;-70
2022/07/22 06:31:46;;;;;;;6.03;5.53;;;;;;;20.24;69.32;101213.44;7393228;19;20031;-70
2022/07/22 06:34:14;;;;;;;5.25;4.80;;;;;;;20.29;69.68;101205.19;7391559;19;20006;-70
2022/07/22 06:36:43;;;;;;;5.35;4.93;;;;;;;20.33;69.13;101204.06;7391634;19;20467;-70
2022/07/22 06:39:12;;;;;;;5.75;5.18;;;;;;;20.40;68.79;101205.47;7391713;19;20517;-70
2022/07/22 06:41:40;;;;;;;5.53;5.03;;;;;;;20.47;69.16;101209.50;7393897;19;20015;-72
2022/07/22 06:44:09;;;;;;;5.70;5.20;;;;;;;20.56;68.40;101205.47;7393766;19;20011;-71
2022/07/22 06:46:40;;;;;;;6.47;5.78;;;;;;;20.62;68.55;101205.09;7392121;19;20022;-71
2022/07/22 06:49:09;;;;;;;6.03;4.93;;;;;;;20.70;67.78;101201.13;7394574;19;20073;-71
2022/07/22 06:51:37;;;;;;;5.13;4.70;;;;;;;20.76;67.73;101206.16;7392435;19;20019;-71
2022/07/22 06:54:06;;;;;;;4.68;4.28;;;;;;;20.81;66.81;101206.75;7393387;19;20079;-71
2022/07/22 06:56:35;;;;;;;5.00;4.60;;;;;;;20.88;66.77;101204.56;7394280;19;20031;-70
2022/07/22 06:59:03;;;;;;;6.78;4.07;;;;;;;20.93;66.61;101205.19;7394207;19;20015;-70
2022/07/22 07:01:32;;;;;;;4.53;4.13;;;;;;;21.01;66.56;101207.41;7393601;19;20024;-70
2022/07/22 07:04:03;;;;;;;4.43;4.00;;;;;;;21.07;65.70;101199.91;7393838;19;20042;-70
2022/07/22 07:06:32;;;;;;;4.63;4.22;;;;;;;21.15;65.35;101197.66;7394678;19;20450;-69
2022/07/22 07:09:00;;;;;;;4.68;4.22;;;;;;;21.17;64.78;101216.22;7392011;19;20018;-70
2022/07/22 07:11:29;;;;;;;5.45;4.40;;;;;;;21.18;65.13;101209.94;7394167;19;20023;-70
2022/07/22 07:13:57;;;;;;;4.78;4.38;;;;;;;21.21;64.94;101209.75;7392487;19;20014;-70
2022/07/22 07:16:26;;;;;;;4.40;4.00;;;;;;;21.23;64.81;101207.88;7393080;19;20485;-69
2022/07/22 07:18:54;;;;;;;5.15;3.88;;;;;;;21.25;64.06;101208.63;7391298;19;20019;-69
2022/07/22 07:21:26;;;;;;;4.18;3.85;;;;;;;21.28;63.94;101207.56;7393041;19;20014;-74
2022/07/22 07:23:54;;;;;;;5.13;4.22;;;;;;;21.35;63.70;101219.59;7393446;19;20027;-70
2022/07/22 07:26:23;;;;;;;4.90;4.47;;;;;;;21.36;64.00;101212.44;7391037;19;20038;-70
2022/07/22 07:28:51;;;;;;;4.70;4.30;;;;;;;21.38;63.47;101208.75;7389907;19;20031;-70
2022/07/22 07:31:20;;;;;;;4.65;4.13;;;;;;;21.42;63.90;101209.41;7392682;19;20011;-70
2022/07/22 07:33:49;;;;;;;4.20;3.90;;;;;;;21.48;63.58;101209.03;7391212;19;20011;-70
2022/07/22 07:36:17;;;;;;;4.85;4.45;;;;;;;21.52;63.20;101204.38;7393963;19;20028;-69
2022/07/22 07:38:49;;;;;;;4.78;4.18;;;;;;;21.54;62.41;101202.50;7397233;19;20018;-70
2022/07/22 07:41:17;;;;;;;4.78;4.30;;;;;;;21.60;62.19;101204.81;7400392;19;20018;-71
2022/07/22 07:43:46;;;;;;;4.07;3.67;;;;;;;21.65;62.19;101213.41;7397288;19;20063;-70
2022/07/22 07:46:15;;;;;;;5.05;4.20;;;;;;;21.71;61.56;101209.50;7399443;19;20031;-70
2022/07/22 07:48:43;;;;;;;4.05;3.38;;;;;;;21.73;61.06;101211.09;7397146;19;20026;-68
2022/07/22 07:51:12;;;;;;;4.63;4.22;;;;;;;21.80;61.20;101215.13;7399447;19;20031;-70
2022/07/22 07:53:40;;;;;;;4.85;4.07;;;;;;;21.84;60.78;101210.47;7399420;19;20043;-70
2022/07/22 07:56:12;;;;;;;4.15;3.83;;;;;;;21.84;60.39;101210.47;7400006;19;20070;-70
2022/07/22 07:58:40;;;;;;;4.63;4.22;;;;;;;21.84;60.44;101215.81;7397434;19;20019;-70
2022/07/22 08:01:09;;;;;;;4.57;3.72;;;;;;;21.82;60.70;101212.34;7399039;19;20035;-70
2022/07/22 08:03:38;;;;;;;3.95;3.65;;;;;;;21.84;61.06;101213.13;7396924;19;20031;-70
2022/07/22 08:06:07;;;;;;;3.85;3.28;;;;;;;21.84;60.41;101210.47;7399451;19;20093;-69
2022/07/22 08:08:35;;;;;;;4.18;3.47;;;;;;;21.88;60.67;101216.47;7396667;19;20035;-69
2022/07/22 08:11:04;;;;;;;5.95;3.78;;;;;;;21.90;60.59;101210.09;7398742;19;20010;-69
2022/07/22 08:13:41;;;;;;;4.25;3.28;;;;;;;21.97;60.62;101202.53;7398721;19;20031;-70
2022/07/22 08:16:16;;;;;;;5.00;4.15;;;;;;;22.04;59.22;101205.66;7399648;19;20047;-70
2022/07/22 08:18:45;;;;;;;3.75;3.35;;;;;;;22.12;59.29;101193.53;7396504;19;20503;-70
2022/07/22 08:21:13;;;;;;;3.95;3.53;;;;;;;22.22;59.30;101195.66;7398602;19;20023;-70
2022/07/22 08:23:42;;;;;;;3.10;2.80;;;;;;;22.32;58.83;101198.56;7395771;19;20022;-70
2022/07/22 08:26:10;;;;;;;3.30;3.03;;;;;;;22.39;58.31;101203.47;7398044;19;20019;-70
2022/07/22 08:28:41;;;;;;;3.53;3.22;;;;;;;22.47;57.65;101191.41;7396166;19;20509;-70
2022/07/22 08:31:10;;;;;;;3.28;2.97;;;;;;;22.52;57.72;101198.19;7398595;19;20028;-70
2022/07/22 08:33:39;;;;;;;3.28;3.00;;;;;;;22.55;57.66;101200.66;7396506;19;20482;-69
2022/07/22 08:36:08;;;;;;;3.47;3.17;;;;;;;22.56;57.41;101202.38;7398165;19;20036;-69
2022/07/22 08:38:36;;;;;;;3.28;2.80;;;;;;;22.59;58.01;101206.66;7396159;19;20038;-69
2022/07/22 08:41:06;;;;;;;6.20;3.33;;;;;;;22.64;57.97;101198.34;7397917;19;20019;-69
2022/07/22 08:43:39;;;;;;;4.57;3.05;;;;;;;22.67;57.35;101193.66;7397515;19;20374;-70
2022/07/22 08:46:10;;;;;;;3.15;2.85;;;;;;;22.71;56.27;101205.88;7398868;19;20060;-70
2022/07/22 08:48:39;;;;;;;3.60;3.30;;;;;;;22.77;57.16;101199.25;7394905;19;20018;-70
2022/07/22 08:51:08;;;;;;;4.05;3.13;;;;;;;22.79;56.81;101197.34;7397622;19;20502;-70
2022/07/22 08:53:37;;;;;;;4.57;3.03;;;;;;;22.81;56.74;101205.25;7397968;19;20019;-70
2022/07/22 08:56:05;;;;;;;4.38;3.10;;;;;;;22.85;56.86;101204.06;7397560;19;20015;-70
2022/07/22 08:58:34;;;;;;;3.53;2.80;;;;;;;22.88;56.52;101202.06;7395975;19;20022;-70
2022/07/22 09:01:13;;;;;;;3.45;3.15;;;;;;;22.93;56.36;101207.13;7395411;19;20023;-70
2022/07/22 09:03:50;;;;;;;4.32;3.10;;;;;;;22.97;56.53;101210.44;7398663;19;20039;-70
2022/07/22 09:06:19;;;;;;;4.00;3.60;;;;;;;23.04;56.33;101204.56;7395333;19;20015;-70
2022/07/22 09:08:54;;;;;;;4.78;2.70;;;;;;;23.10;55.42;101200.63;7394909;19;20035;-70
2022/07/22 09:11:24;;;;;;;3.80;3.30;;;;;;;23.17;55.30;101195.75;7395931;19;20014;-70
2022/07/22 09:13:54;;;;;;;2.85;2.40;;;;;;;23.23;55.44;101198.88;7395323;19;20031;-70
2022/07/22 09:16:43;;;;;;;2.50;2.30;;;;;;;23.29;54.21;101194.06;7396535;19;20010;-69
2022/07/22 09:19:12;;;;;;;3.72;2.47;;;;;;;23.32;54.34;101196.53;7396841;19;20506;-69
2022/07/22 09:21:42;;;;;;;2.90;2.60;;;;;;;23.31;54.19;101198.34;7396535;19;20026;-69
2022/07/22 09:24:27;;;;;;;2.55;2.30;;;;;;;23.30;54.08;101198.44;7395046;19;20035;-70
2022/07/22 09:26:57;;;;;;;2.88;2.50;;;;;;;23.27;53.88;101194.16;7396960;19;20032;-69
2022/07/22 09:29:27;;;;;;;2.50;2.30;;;;;;;23.29;54.00;101199.41;7396395;19;20018;-70
2022/07/22 09:31:58;;;;;;;3.35;2.47;;;;;;;23.30;53.49;101203.81;7394905;19;20014;-70
2022/07/22 09:34:31;;;;;;;3.20;2.30;;;;;;;23.31;53.32;101197.50;7394495;19;20019;-69
2022/07/22 09:37:01;;;;;;;;;;;;;;;23.31;53.42;101203.69;7394875;19;20027;-68
2022/07/22 09:39:31;;;;;;;3.25;2.78;;;;;;;23.31;53.75;101202.84;7395683;19;20321;-69
2022/07/22 09:42:01;;;;;;;3.20;2.90;;;;;;;23.30;53.58;101206.47;7393839;19;20070;-70
2022/07/22 09:44:29;;;;;;;3.00;2.72;;;;;;;23.24;53.87;101199.72;7393437;19;20023;-70
2022/07/22 09:47:01;;;;;;;2.88;2.63;;;;;;;23.24;54.23;101208.63;7393628;19;20427;-69
2022/07/22 09:49:34;;;;;;;3.47;2.88;;;;;;;23.17;54.94;101215.34;7395583;19;20031;-70
2022/07/22 09:52:03;;;;;;;4.28;3.13;;;;;;;23.14;55.22;101212.84;7396280;19;20031;-70
2022/07/22 09:54:32;;;;;;;4.75;3.28;;;;;;;23.09;55.06;101204.28;7395093;19;20017;-70
2022/07/22 09:57:01;;;;;;;5.10;3.22;;;;;;;23.11;55.26;101213.03;7395071;19;20478;-71
2022/07/22 09:59:29;;;;;;;4.50;2.95;;;;;;;23.17;55.92;101214.50;7392329;19;20025;-71
2022/07/22 10:02:03;;;;;;;3.40;3.05;;;;;;;23.23;55.52;101220.28;7395239;19;20376;-71
2022/07/22 10:04:36;;;;;;;3.35;3.05;;;;;;;23.29;54.95;101215.47;7395451;19;20089;-70
2022/07/22 10:07:04;;;;;;;3.67;2.55;;;;;;;23.34;55.01;101216.88;7393421;19;20035;-69
2022/07/22 10:09:34;;;;;;;3.50;3.00;;;;;;;23.40;54.53;101215.59;7393935;19;20031;-69
2022/07/22 10:12:03;;;;;;;2.92;2.72;;;;;;;23.46;54.50;101206.28;7393114;19;20014;-70
2022/07/22 10:14:33;;;;;;;3.22;2.92;;;;;;;23.54;54.13;101214.63;7394278;19;20034;-71
2022/07/22 10:17:05;;;;;;;3.03;2.72;;;;;;;23.58;54.21;101214.31;7394496;19;20019;-70
2022/07/22 10:19:33;;;;;;;4.57;2.90;;;;;;;23.64;54.62;101210.34;7394891;19;20045;-70
2022/07/22 10:22:02;;;;;;;2.80;2.60;;;;;;;23.70;54.59;101211.75;7393976;19;20038;-70
2022/07/22 10:24:31;;;;;;;3.17;2.88;;;;;;;23.74;54.33;101203.38;7397067;19;20022;-70
2022/07/22 10:27:01;;;;;;;5.03;2.88;;;;;;;23.82;54.46;101207.34;7394888;19;20033;-69
2022/07/22 10:29:32;;;;;;;2.72;2.53;;;;;;;23.88;54.52;101197.03;7393529;19;20475;-70
2022/07/22 10:32:36;;;;;;;3.25;2.38;;;;;;;23.98;54.13;101201.81;7392176;19;20011;-70
2022/07/22 10:35:28;;;;;;;3.85;2.55;;;;;;;24.06;54.06;101215.50;7391026;19;20020;-70
2022/07/22 10:37:59;;;;;;;4.95;2.97;;;;;;;24.09;54.16;101204.56;7393246;19;20022;-70
2022/07/22 10:40:29;;;;;;;2.50;2.30;;;;;;;24.14;53.50;101206.91;7391782;19;20510;-70
2022/07/22 10:43:15;;;;;;;2.15;1.95;;;;;;;24.14;52.36;101207.78;7391543;19;20010;-69
2022/07/22 10:45:48;;;;;;;2.13;1.92;;;;;;;24.14;52.70;101196.19;7393699;19;20022;-70
2022/07/22 10:48:19;;;;;;;2.20;2.00;;;;;;;24.18;53.12;101198.53;7392383;19;20027;-69
2022/07/22 10:50:55;;;;;;;2.60;2.40;;;;;;;24.24;52.84;101202.63;7393912;19;20015;-70
2022/07/22 10:53:26;;;;;;;2.40;2.20;;;;;;;24.33;52.87;101199.25;7392770;19;20015;-69
2022/07/22 10:56:06;;;;;;;2.00;1.80;;;;;;;24.42;51.77;101200.41;7392125;19;20031;-70
2022/07/22 10:58:44;;;;;;;2.20;1.75;;;;;;;24.53;51.76;101203.16;7392334;19;20035;-70
2022/07/22 11:01:14;;;;;;;2.97;1.75;;;;;;;24.66;51.48;101192.41;7393673;19;20022;-70
2022/07/22 11:03:46;;;;;;;2.67;1.52;;;;;;;24.81;51.10;101200.28;7393591;19;20038;-69
2022/07/22 11:06:27;;;;;;;1.80;1.70;;;;;;;24.85;50.25;101202.59;7392875;19;20028;-68
2022/07/22 11:08:57;;;;;;;2.38;1.83;;;;;;;24.83;51.08;101195.66;7391366;19;20031;-70
2022/07/22 11:11:38;;;;;;;1.73;1.63;;;;;;;24.79;50.68;101192.34;7395367;19;20390;-70
2022/07/22 11:14:13;;;;;;;1.50;1.40;;;;;;;24.82;50.98;101194.81;7400242;19;20410;-69
2022/07/22 11:16:42;;;;;;;1.60;1.50;;;;;;;24.93;50.45;101188.59;7397370;19;20434;-70
2022/07/22 11:19:10;;;;;;;1.90;1.80;;;;;;;25.05;50.09;101179.63;7400075;19;20500;-69
2022/07/22 11:21:42;;;;;;;1.80;1.70;;;;;;;25.10;49.80;101184.66;7399998;19;20018;-70
2022/07/22 11:24:11;;;;;;;1.83;1.73;;;;;;;25.15;50.34;101182.47;7397884;19;20022;-69
2022/07/22 11:26:45;;;;;;;2.10;1.88;;;;;;;25.19;49.42;101188.47;7398909;19;20489;-70
2022/07/22 11:29:19;;;;;;;2.00;1.90;;;;;;;25.17;48.50;101175.16;7400088;19;20346;-70
2022/07/22 11:31:47;;;;;;;1.70;1.60;;;;;;;25.13;49.26;101173.66;7399623;19;20031;-70
2022/07/22 11:34:20;;;;;;;1.65;1.55;;;;;;;25.08;49.25;101178.53;7397882;19;20485;-69
2022/07/22 11:36:52;;;;;;;2.33;2.03;;;;;;;24.95;49.51;101197.41;7397142;19;20018;-69